createdAt,value
2023-02-25T00:01:35.450Z,3.10
2023-02-25T00:04:02.193Z,3.40
2023-02-25T00:06:28.991Z,2.90
2023-02-25T00:08:56.144Z,2.90
2023-02-25T00:11:25.079Z,2.90
2023-02-25T00:13:52.024Z,2.90
2023-02-25T00:16:19.599Z,3.00
2023-02-25T00:18:47.017Z,3.70
2023-02-25T00:21:16.288Z,2.80
2023-02-25T00:23:45.001Z,2.80
2023-02-25T00:26:12.766Z,3.20
2023-02-25T00:28:40.395Z,3.00
2023-02-25T00:31:21.403Z,3.10
2023-02-25T00:33:48.805Z,3.10
2023-02-25T00:36:21.972Z,2.90
2023-02-25T00:38:54.611Z,2.80
2023-02-25T00:41:25.393Z,3.10
2023-02-25T00:43:58.548Z,3.00
2023-02-25T00:46:26.835Z,2.70
2023-02-25T00:48:53.621Z,2.50
2023-02-25T00:51:23.690Z,2.70
2023-02-25T00:53:53.591Z,2.60
2023-02-25T00:56:20.786Z,2.40
2023-02-25T00:58:49.064Z,2.70
2023-02-25T01:01:38.929Z,2.60
2023-02-25T01:04:06.506Z,2.70
2023-02-25T01:06:34.760Z,2.60
2023-02-25T01:09:03.466Z,2.90
2023-02-25T01:11:33.641Z,3.20
2023-02-25T01:14:06.468Z,2.90
2023-02-25T01:16:35.542Z,2.70
2023-02-25T01:19:08.806Z,2.30
2023-02-25T01:21:38.793Z,2.50
2023-02-25T01:24:10.264Z,2.20
2023-02-25T01:26:39.511Z,2.70
2023-02-25T01:29:10.324Z,2.50
2023-02-25T01:31:38.277Z,3.20
2023-02-25T01:34:07.638Z,2.00
2023-02-25T01:36:35.058Z,2.40
2023-02-25T01:39:03.375Z,2.30
2023-02-25T01:41:32.798Z,2.30
2023-02-25T01:44:12.052Z,2.20
2023-02-25T01:46:41.389Z,2.30
2023-02-25T01:49:14.144Z,1.80
2023-02-25T01:51:42.316Z,2.20
2023-02-25T01:54:10.779Z,2.50
2023-02-25T01:56:41.525Z,2.20
2023-02-25T01:59:09.365Z,2.00
2023-02-25T02:01:39.695Z,2.60
2023-02-25T02:04:10.548Z,2.20
2023-02-25T02:06:43.496Z,2.00
2023-02-25T02:09:14.473Z,2.40
2023-02-25T02:11:42.170Z,3.20
2023-02-25T02:14:12.925Z,2.20
2023-02-25T02:16:58.093Z,2.40
2023-02-25T02:19:31.889Z,2.10
2023-02-25T02:22:12.249Z,2.10
2023-02-25T02:24:51.304Z,2.60
2023-02-25T02:31:36.426Z,2.60
2023-02-25T02:34:16.673Z,2.60
2023-02-25T02:36:49.606Z,2.60
2023-02-25T02:39:27.760Z,2.60
2023-02-25T02:42:03.623Z,3.30
2023-02-25T02:44:40.050Z,2.60
2023-02-25T02:47:15.018Z,2.20
2023-02-25T02:49:51.356Z,2.70
2023-02-25T02:52:27.002Z,2.60
2023-02-25T02:55:00.768Z,2.70
2023-02-25T02:57:29.805Z,2.60
2023-02-25T03:00:00.427Z,2.40
2023-02-25T03:03:14.985Z,2.50
2023-02-25T03:05:44.962Z,2.60
2023-02-25T03:08:17.403Z,2.50
2023-02-25T03:10:44.755Z,3.40
2023-02-25T03:13:11.589Z,2.50
2023-02-25T03:15:40.637Z,2.10
2023-02-25T03:18:22.104Z,2.50
2023-02-25T03:20:52.296Z,2.40
2023-02-25T03:23:27.509Z,3.10
2023-02-25T03:26:06.482Z,2.70
2023-02-25T03:28:34.775Z,2.70
2023-02-25T03:31:23.665Z,2.90
2023-02-25T03:34:01.848Z,2.60
2023-02-25T03:36:33.781Z,2.60
2023-02-25T03:39:09.900Z,2.50
2023-02-25T03:41:40.721Z,2.60
2023-02-25T03:44:14.858Z,2.40
2023-02-25T03:46:43.808Z,2.70
2023-02-25T03:49:16.246Z,3.20
2023-02-25T03:51:47.672Z,2.50
2023-02-25T03:54:16.656Z,2.50
2023-02-25T03:56:46.232Z,2.60
2023-02-25T03:59:13.679Z,2.40
2023-02-25T04:01:42.777Z,3.20
2023-02-25T04:04:09.713Z,2.40
2023-02-25T04:06:36.789Z,2.60
2023-02-25T04:09:04.602Z,2.50
2023-02-25T04:11:31.371Z,2.60
2023-02-25T04:13:58.164Z,2.30
2023-02-25T04:16:25.105Z,2.50
2023-02-25T04:18:51.861Z,2.20
2023-02-25T04:21:36.112Z,2.20
2023-02-25T04:24:05.520Z,2.60
2023-02-25T04:26:33.065Z,2.60
2023-02-25T04:28:59.727Z,2.50
2023-02-25T04:31:26.742Z,2.60
2023-02-25T04:33:53.572Z,2.80
2023-02-25T04:36:33.636Z,2.80
2023-02-25T04:39:02.636Z,2.60
2023-02-25T04:41:32.284Z,2.70
2023-02-25T04:43:59.991Z,2.60
2023-02-25T04:46:27.292Z,2.50
2023-02-25T04:48:54.053Z,2.60
2023-02-25T04:51:21.223Z,2.60
2023-02-25T04:53:48.703Z,2.60
2023-02-25T04:56:15.779Z,2.60
2023-02-25T04:58:42.821Z,2.60
2023-02-25T05:01:10.753Z,2.50
2023-02-25T05:03:38.319Z,2.60
2023-02-25T05:06:06.111Z,2.50
2023-02-25T05:08:33.944Z,2.60
2023-02-25T05:11:01.297Z,2.70
2023-02-25T05:13:28.787Z,2.50
2023-02-25T05:16:06.395Z,2.60
2023-02-25T05:18:36.174Z,2.70
2023-02-25T05:21:02.926Z,2.60
2023-02-25T05:23:29.607Z,2.20
2023-02-25T05:25:58.745Z,2.40
2023-02-25T05:28:25.464Z,2.30
2023-02-25T05:30:53.569Z,2.30
2023-02-25T05:33:20.232Z,2.20
2023-02-25T05:38:17.219Z,2.20
2023-02-25T05:40:43.875Z,2.10
2023-02-25T05:43:10.547Z,2.10
2023-02-25T05:45:41.828Z,2.10
2023-02-25T05:48:08.520Z,1.70
2023-02-25T05:50:43.946Z,2.00
2023-02-25T05:53:10.672Z,1.90
2023-02-25T05:55:43.656Z,1.90
2023-02-25T05:58:10.857Z,1.60
2023-02-25T06:00:45.014Z,1.80
2023-02-25T06:03:11.790Z,2.30
2023-02-25T06:05:42.199Z,1.90
2023-02-25T06:08:12.425Z,2.10
2023-02-25T06:10:40.233Z,2.00
2023-02-25T06:13:08.752Z,1.90
2023-02-25T06:15:40.751Z,2.00
2023-02-25T06:18:08.201Z,2.10
2023-02-25T06:20:35.594Z,2.10
2023-02-25T06:23:03.226Z,2.10
2023-02-25T06:25:30.297Z,2.10
2023-02-25T06:27:57.901Z,2.10
2023-02-25T06:30:24.919Z,2.20
2023-02-25T06:32:51.938Z,2.10
2023-02-25T06:35:21.034Z,2.10
2023-02-25T06:37:47.708Z,2.30
2023-02-25T06:40:15.455Z,2.50
2023-02-25T06:42:42.121Z,2.50
2023-02-25T06:45:09.642Z,2.70
2023-02-25T06:47:36.305Z,2.50
2023-02-25T06:50:03.143Z,2.60
2023-02-25T06:52:29.795Z,2.30
2023-02-25T06:54:56.500Z,2.30
2023-02-25T06:57:23.154Z,2.60
2023-02-25T06:59:49.801Z,2.50
2023-02-25T07:02:16.629Z,2.40
2023-02-25T07:04:44.196Z,2.70
2023-02-25T07:07:11.272Z,2.40
2023-02-25T07:09:38.255Z,2.80
2023-02-25T07:12:05.011Z,2.90
2023-02-25T07:14:31.673Z,2.70
2023-02-25T07:16:58.292Z,2.50
2023-02-25T07:19:24.976Z,2.70
2023-02-25T07:21:51.814Z,2.90
2023-02-25T07:24:18.511Z,2.30
2023-02-25T07:26:45.169Z,2.80
2023-02-25T07:29:13.813Z,2.80
2023-02-25T07:31:42.175Z,2.70
2023-02-25T07:34:09.985Z,2.80
2023-02-25T07:36:40.550Z,2.70
2023-02-25T07:39:10.766Z,2.80
2023-02-25T07:41:38.467Z,2.70
2023-02-25T07:44:06.097Z,2.30
2023-02-25T07:46:33.115Z,2.90
2023-02-25T07:48:59.791Z,2.70
2023-02-25T07:51:26.895Z,2.90
2023-02-25T07:53:56.052Z,3.00
2023-02-25T07:56:25.064Z,3.10
2023-02-25T07:58:51.778Z,3.10
2023-02-25T08:01:27.616Z,3.20
2023-02-25T08:03:57.220Z,3.20
2023-02-25T08:06:24.254Z,3.30
2023-02-25T08:08:52.154Z,3.10
2023-02-25T08:11:20.619Z,3.30
2023-02-25T08:13:47.656Z,3.30
2023-02-25T08:16:17.293Z,3.40
2023-02-25T08:18:44.113Z,3.40
2023-02-25T08:21:15.801Z,3.40
2023-02-25T08:23:42.441Z,3.40
2023-02-25T08:26:10.112Z,3.30
2023-02-25T08:28:38.347Z,3.40
2023-02-25T08:31:08.132Z,3.40
2023-02-25T08:33:35.133Z,3.80
2023-02-25T08:36:16.960Z,3.90
2023-02-25T08:38:44.541Z,4.10
2023-02-25T08:41:11.257Z,4.30
2023-02-25T08:43:38.765Z,4.40
2023-02-25T08:46:06.687Z,4.40
2023-02-25T08:48:34.684Z,4.20
2023-02-25T08:51:08.369Z,4.20
2023-02-25T08:53:37.112Z,4.50
2023-02-25T08:58:32.446Z,6.00
2023-02-25T09:00:59.760Z,4.40
2023-02-25T09:03:27.400Z,4.40
2023-02-25T09:05:55.918Z,4.40
2023-02-25T09:08:22.901Z,4.40
2023-02-25T09:10:50.993Z,4.40
2023-02-25T09:13:17.914Z,4.50
2023-02-25T09:15:44.621Z,4.40
2023-02-25T09:18:11.819Z,4.40
2023-02-25T09:20:38.680Z,4.40
2023-02-25T09:23:05.364Z,4.50
2023-02-25T09:25:32.092Z,4.60
2023-02-25T09:27:58.742Z,4.60
2023-02-25T09:30:26.394Z,4.70
2023-02-25T09:35:20.353Z,4.90
2023-02-25T09:37:47.005Z,4.80
2023-02-25T09:40:18.304Z,4.90
2023-02-25T09:43:03.418Z,5.00
2023-02-25T09:45:33.025Z,4.80
2023-02-25T09:48:14.094Z,4.80
2023-02-25T09:50:46.548Z,4.80
2023-02-25T09:55:53.997Z,5.10
2023-02-25T09:58:46.025Z,4.80
2023-02-25T10:01:24.904Z,4.70
2023-02-25T10:04:00.775Z,4.40
2023-02-25T10:06:38.973Z,4.50
2023-02-25T10:09:25.323Z,4.60
2023-02-25T10:12:26.948Z,4.60
2023-02-25T10:15:06.613Z,4.60
2023-02-25T10:17:36.542Z,4.60
2023-02-25T10:20:38.846Z,4.30
2023-02-25T10:23:26.740Z,4.10
2023-02-25T10:26:13.995Z,3.70
2023-02-25T10:28:43.952Z,3.50
2023-02-25T10:31:28.832Z,3.70
2023-02-25T10:34:20.414Z,3.80
2023-02-25T10:37:01.096Z,4.00
2023-02-25T10:39:28.813Z,3.50
2023-02-25T10:41:55.630Z,3.90
2023-02-25T10:44:22.384Z,3.50
2023-02-25T10:46:52.158Z,3.40
2023-02-25T10:49:32.243Z,4.10
2023-02-25T10:52:20.201Z,5.50
2023-02-25T10:54:48.486Z,4.50
2023-02-25T10:57:21.040Z,3.30
2023-02-25T10:59:49.189Z,2.20
2023-02-25T11:02:23.547Z,2.50
2023-02-25T11:04:52.601Z,2.90
2023-02-25T11:07:42.141Z,2.60
2023-02-25T11:10:16.747Z,2.90
2023-02-25T11:12:55.221Z,2.90
2023-02-25T11:15:45.161Z,3.60
2023-02-25T11:18:27.179Z,3.10
2023-02-25T11:21:00.539Z,3.20
2023-02-25T11:23:39.449Z,3.00
2023-02-25T11:26:08.179Z,3.20
2023-02-25T11:28:40.438Z,3.30
2023-02-25T11:31:19.411Z,3.20
2023-02-25T11:33:53.273Z,3.30
2023-02-25T11:36:25.665Z,3.40
2023-02-25T11:39:16.682Z,3.20
2023-02-25T11:41:46.020Z,3.30
2023-02-25T11:44:43.543Z,3.30
2023-02-25T11:47:14.082Z,4.70
2023-02-25T11:52:26.201Z,4.50
2023-02-25T11:55:15.529Z,4.70
2023-02-25T11:58:04.324Z,4.70
2023-02-25T12:01:14.551Z,4.80
2023-02-25T12:06:32.320Z,6.20
2023-02-25T12:12:03.286Z,6.50
2023-02-25T12:15:06.600Z,6.60
2023-02-25T12:18:12.403Z,6.10
2023-02-25T12:21:24.687Z,4.80
2023-02-25T12:24:12.998Z,4.00
2023-02-25T12:27:17.479Z,3.90
2023-02-25T12:30:00.652Z,3.60
2023-02-25T12:32:44.764Z,3.50
2023-02-25T12:35:34.812Z,3.50
2023-02-25T12:38:39.258Z,3.50
2023-02-25T12:41:23.251Z,3.50
2023-02-25T12:44:11.304Z,3.30
2023-02-25T12:46:50.384Z,4.10
2023-02-25T12:49:45.635Z,4.10
2023-02-25T12:52:23.311Z,3.60
2023-02-25T12:55:15.369Z,3.70
2023-02-25T12:58:03.548Z,4.60
2023-02-25T13:00:42.644Z,4.30
2023-02-25T13:03:54.533Z,5.20
2023-02-25T13:06:53.212Z,4.80
2023-02-25T13:09:44.355Z,4.40
2023-02-25T13:12:44.781Z,4.00
2023-02-25T13:15:20.629Z,3.60
2023-02-25T13:17:56.585Z,3.50
2023-02-25T13:20:43.963Z,3.70
2023-02-25T13:23:48.524Z,3.90
2023-02-25T13:26:46.487Z,4.00
2023-02-25T13:29:19.253Z,3.70
2023-02-25T13:32:12.942Z,3.50
2023-02-25T13:34:49.188Z,3.60
2023-02-25T13:37:38.009Z,3.80
2023-02-25T13:40:13.395Z,3.70
2023-02-25T13:42:52.933Z,4.00
2023-02-25T13:45:22.904Z,6.80
2023-02-25T13:48:17.022Z,7.80
2023-02-25T13:50:50.371Z,7.50
2023-02-25T13:53:38.628Z,10.70
2023-02-25T13:56:39.728Z,11.60
2023-02-25T14:02:37.001Z,14.10
2023-02-25T14:05:41.603Z,15.40
2023-02-25T14:08:25.274Z,15.60
2023-02-25T14:11:12.084Z,11.40
2023-02-25T14:13:44.723Z,11.60
2023-02-25T14:16:32.685Z,11.40
2023-02-25T14:19:07.054Z,12.50
2023-02-25T14:21:49.036Z,11.90
2023-02-25T14:24:21.537Z,10.30
2023-02-25T14:26:56.270Z,9.10
2023-02-25T14:29:48.038Z,8.60
2023-02-25T14:32:42.823Z,7.40
2023-02-25T14:35:29.850Z,7.10
2023-02-25T14:38:15.759Z,6.80
2023-02-25T14:41:01.234Z,6.60
2023-02-25T14:43:34.317Z,6.30
2023-02-25T14:46:47.995Z,6.10
2023-02-25T14:49:35.358Z,5.90
2023-02-25T14:52:14.410Z,5.80
2023-02-25T14:55:18.883Z,5.60
2023-02-25T14:58:16.738Z,5.40
2023-02-25T15:00:52.089Z,5.30
2023-02-25T15:03:42.337Z,5.00
2023-02-25T15:06:21.860Z,4.90
2023-02-25T15:09:23.670Z,4.70
2023-02-25T15:12:05.943Z,6.70
2023-02-25T15:15:03.212Z,7.00
2023-02-25T15:18:07.133Z,7.30
2023-02-25T15:20:38.713Z,10.00
2023-02-25T15:23:07.271Z,8.30
2023-02-25T15:26:13.577Z,7.80
2023-02-25T15:28:42.657Z,6.90
2023-02-25T15:31:28.235Z,5.80
2023-02-25T15:34:28.545Z,5.10
2023-02-25T15:37:22.342Z,5.20
2023-02-25T15:39:52.132Z,5.00
2023-02-25T15:42:40.760Z,5.40
2023-02-25T15:45:27.052Z,6.50
2023-02-25T15:48:12.537Z,6.30
2023-02-25T15:50:51.697Z,6.70
2023-02-25T15:53:21.707Z,6.50
2023-02-25T15:55:50.256Z,6.20
2023-02-25T15:58:23.361Z,6.80
2023-02-25T16:01:05.512Z,7.10
2023-02-25T16:03:32.228Z,6.90
2023-02-25T16:06:12.963Z,5.90
2023-02-25T16:08:47.095Z,5.70
2023-02-25T16:11:30.247Z,4.90
2023-02-25T16:13:58.110Z,4.60
2023-02-25T16:16:28.996Z,4.40
2023-02-25T16:18:57.984Z,4.10
2023-02-25T16:21:38.091Z,3.50
2023-02-25T16:24:12.882Z,3.50
2023-02-25T16:26:53.640Z,3.50
2023-02-25T16:29:27.527Z,3.40
2023-02-25T16:32:09.461Z,3.90
2023-02-25T16:34:46.625Z,3.10
2023-02-25T16:37:22.970Z,3.00
2023-02-25T16:39:49.831Z,2.60
2023-02-25T16:42:18.556Z,2.60
2023-02-25T16:44:55.167Z,2.60
2023-02-25T16:47:31.894Z,2.60
2023-02-25T16:50:01.870Z,2.70
2023-02-25T16:52:35.511Z,3.30
2023-02-25T16:55:05.799Z,2.70
2023-02-25T16:57:36.450Z,2.70
2023-02-25T17:00:17.179Z,3.10
2023-02-25T17:02:52.523Z,2.60
2023-02-25T17:05:32.681Z,2.60
2023-02-25T17:08:06.608Z,2.60
2023-02-25T17:10:47.125Z,2.60
2023-02-25T17:13:35.641Z,2.50
2023-02-25T17:16:05.021Z,2.50
2023-02-25T17:18:37.045Z,2.50
2023-02-25T17:21:33.679Z,2.50
2023-02-25T17:24:02.909Z,2.50
2023-02-25T17:26:33.255Z,2.50
2023-02-25T17:29:02.026Z,3.00
2023-02-25T17:31:46.926Z,2.40
2023-02-25T17:34:22.625Z,1.90
2023-02-25T17:36:50.092Z,2.20
2023-02-25T17:39:20.004Z,2.30
2023-02-25T17:41:48.530Z,2.90
2023-02-25T17:44:37.646Z,2.20
2023-02-25T17:47:08.071Z,2.30
2023-02-25T17:49:36.459Z,3.10
2023-02-25T17:52:06.978Z,2.30
2023-02-25T17:54:36.842Z,2.20
2023-02-25T17:57:16.735Z,2.20
2023-02-25T17:59:50.387Z,2.30
2023-02-25T18:02:26.313Z,2.20
2023-02-25T18:05:11.100Z,2.20
2023-02-25T18:08:04.712Z,2.30
2023-02-25T18:10:31.413Z,2.20
2023-02-25T18:13:03.200Z,2.20
2023-02-25T18:15:34.321Z,2.20
2023-02-25T18:18:03.239Z,2.20
2023-02-25T18:20:43.163Z,2.20
2023-02-25T18:23:38.993Z,2.10
2023-02-25T18:26:14.734Z,2.10
2023-02-25T18:28:50.826Z,1.90
2023-02-25T18:31:19.706Z,2.60
2023-02-25T18:33:51.313Z,2.40
2023-02-25T18:36:33.823Z,2.30
2023-02-25T18:39:11.645Z,1.90
2023-02-25T18:41:41.924Z,1.90
2023-02-25T18:44:15.439Z,2.30
2023-02-25T18:46:42.200Z,1.80
2023-02-25T18:49:08.962Z,1.70
2023-02-25T18:51:35.930Z,1.70
2023-02-25T18:54:02.666Z,1.60
2023-02-25T18:56:32.745Z,1.60
2023-02-25T18:58:59.540Z,1.70
2023-02-25T19:01:30.801Z,2.30
2023-02-25T19:04:00.183Z,1.50
2023-02-25T19:06:28.269Z,1.40
2023-02-25T19:08:55.083Z,1.50
2023-02-25T19:11:29.998Z,2.50
2023-02-25T19:13:56.969Z,1.90
2023-02-25T19:16:24.078Z,1.40
2023-02-25T19:18:51.258Z,1.60
2023-02-25T19:21:20.848Z,1.60
2023-02-25T19:23:51.805Z,1.50
2023-02-25T19:26:18.926Z,1.50
2023-02-25T19:28:46.010Z,1.60
2023-02-25T19:31:12.904Z,1.60
2023-02-25T19:33:39.905Z,1.10
2023-02-25T19:36:08.747Z,1.50
2023-02-25T19:38:35.761Z,1.50
2023-02-25T19:41:05.117Z,1.40
2023-02-25T19:43:32.608Z,1.20
2023-02-25T19:45:59.784Z,0.40
2023-02-25T19:48:26.658Z,0.90
2023-02-25T19:50:53.535Z,1.20
2023-02-25T19:53:20.368Z,1.00
2023-02-25T19:55:47.352Z,1.00
2023-02-25T19:58:14.308Z,0.90
2023-02-25T20:00:45.922Z,0.10
2023-02-25T20:03:13.940Z,0.60
2023-02-25T20:05:41.714Z,0.80
2023-02-25T20:08:09.213Z,0.70
2023-02-25T20:10:36.366Z,0.70
2023-02-25T20:13:03.208Z,0.70
2023-02-25T20:15:30.062Z,0.60
2023-02-25T20:22:52.180Z,0.60
2023-02-25T20:25:19.214Z,0.00
2023-02-25T20:27:46.633Z,2.40
2023-02-25T20:30:17.788Z,1.40
2023-02-25T20:32:45.184Z,0.80
2023-02-25T20:35:20.386Z,-0.10
2023-02-25T20:42:48.370Z,0.50
2023-02-25T20:45:15.909Z,0.60
2023-02-25T20:47:43.324Z,0.20
2023-02-25T20:50:13.520Z,0.50
2023-02-25T20:52:40.454Z,0.60
2023-02-25T20:55:07.870Z,0.40
2023-02-25T21:00:06.262Z,0.20
2023-02-25T21:05:00.281Z,0.10
2023-02-25T21:07:27.051Z,2.10
2023-02-25T21:09:53.913Z,0.00
2023-02-25T21:12:20.698Z,-0.30
2023-02-25T21:22:09.280Z,-0.10
2023-02-25T21:27:04.186Z,-0.10
2023-02-25T21:29:31.962Z,0.70
2023-02-25T21:31:59.023Z,-0.30
2023-02-25T21:34:26.167Z,-0.50
2023-02-25T21:36:52.961Z,-0.40
2023-02-25T21:39:19.658Z,0.00
2023-02-25T21:41:46.469Z,0.30
2023-02-25T21:44:13.584Z,-0.70
2023-02-25T21:46:41.039Z,-1.50
2023-02-25T21:49:10.393Z,0.10
2023-02-25T21:51:37.381Z,-1.10
2023-02-25T21:54:04.122Z,-0.60
2023-02-25T21:56:31.032Z,0.20
2023-02-25T21:59:00.722Z,-0.50
2023-02-25T22:01:33.993Z,-0.60
2023-02-25T22:04:01.057Z,-0.40
2023-02-25T22:06:28.725Z,-0.60
2023-02-25T22:08:56.503Z,-0.80
2023-02-25T22:11:26.301Z,-0.80
2023-02-25T22:13:53.385Z,-0.90
2023-02-25T22:16:21.251Z,-0.90
2023-02-25T22:18:48.573Z,-1.10
2023-02-25T22:21:21.963Z,-1.50
2023-02-25T22:23:50.248Z,-0.90
2023-02-25T22:26:20.494Z,-1.30
2023-02-25T22:28:47.762Z,-1.20
2023-02-25T22:31:16.933Z,-0.60
2023-02-25T22:33:43.863Z,-1.40
2023-02-25T22:36:12.215Z,-1.10
2023-02-25T22:41:12.437Z,-1.00
2023-02-25T22:43:39.112Z,-1.30
2023-02-25T22:46:13.638Z,-1.60
2023-02-25T22:48:41.974Z,-1.10
2023-02-25T22:51:09.701Z,0.40
2023-02-25T22:53:40.589Z,-1.10
2023-02-25T22:56:09.678Z,-1.50
2023-02-25T22:58:38.982Z,-1.30
2023-02-25T23:01:08.080Z,-1.30
2023-02-25T23:03:34.899Z,-1.40
2023-02-25T23:06:01.888Z,-1.40
2023-02-25T23:08:28.632Z,-1.50
2023-02-25T23:10:55.299Z,-1.50
2023-02-25T23:13:22.086Z,-1.40
2023-02-25T23:15:48.964Z,-1.30
2023-02-25T23:18:16.135Z,-1.40
2023-02-25T23:20:42.984Z,-1.30
2023-02-25T23:23:09.768Z,-1.30
2023-02-25T23:25:40.097Z,-1.20
2023-02-25T23:28:08.686Z,-1.10
2023-02-25T23:30:39.107Z,-1.10
2023-02-25T23:33:06.334Z,-1.10
2023-02-25T23:35:34.049Z,-1.20
2023-02-25T23:38:00.791Z,-1.20
2023-02-25T23:40:28.820Z,-1.10
2023-02-25T23:42:55.862Z,-1.00
2023-02-25T23:45:22.967Z,-1.10
2023-02-25T23:47:49.755Z,-1.30
2023-02-25T23:50:17.662Z,-0.90
2023-02-25T23:52:46.666Z,-0.70
2023-02-25T23:55:15.723Z,-0.70
2023-02-25T23:57:44.502Z,-0.20
